Time;durP1;ratioP1;P1;durP2;ratioP2;P2;SDS_P1;SDS_P2;PMS_P1;PMS_P2;Temp;Humidity;BMP_temperature;BMP_pressure;BME280_temperature;BME280_humidity;BME280_pressure;Samples;Min_cycle;Max_cycle;Signal;HPM_P1;HPM_P2
2022/08/10 00:01:15;;;;;;;4.23;3.77;;;17.40;99.90;;;;;;5093249;28;20477;-49
2022/08/10 00:03:44;;;;;;;4.03;3.67;;;17.20;99.90;;;;;;5093609;28;20439;-49
2022/08/10 00:06:12;;;;;;;4.13;3.77;;;17.10;99.90;;;;;;5094061;28;20894;-50
2022/08/10 00:08:40;;;;;;;4.30;3.80;;;17.20;99.90;;;;;;5093520;28;20467;-50
2022/08/10 00:11:07;;;;;;;3.60;3.30;;;17.30;99.90;;;;;;5093467;28;20447;-50
2022/08/10 00:13:35;;;;;;;4.63;3.40;;;17.20;99.90;;;;;;5093502;28;20443;-49
2022/08/10 00:16:02;;;;;;;5.13;4.30;;;17.10;99.90;;;;;;5093206;28;20439;-49
2022/08/10 00:18:29;;;;;;;3.60;3.30;;;16.70;99.90;;;;;;5093833;28;20447;-49
2022/08/10 00:20:56;;;;;;;5.23;3.43;;;16.50;99.90;;;;;;5092963;28;20478;-52
2022/08/10 00:23:23;;;;;;;3.80;3.50;;;16.00;99.90;;;;;;5093235;28;20443;-49
2022/08/10 00:25:52;;;;;;;4.37;3.13;;;16.20;99.90;;;;;;5092808;28;20444;-50
2022/08/10 00:28:19;;;;;;;3.70;3.40;;;16.10;99.90;;;;;;5093136;28;20439;-50
2022/08/10 00:30:46;;;;;;;4.63;3.47;;;16.30;99.90;;;;;;5093011;28;20454;-49
2022/08/10 00:33:13;;;;;;;4.07;3.73;;;16.60;99.90;;;;;;5093115;28;20866;-49
2022/08/10 00:35:40;;;;;;;3.67;3.37;;;16.60;99.90;;;;;;5093036;28;20443;-50
2022/08/10 00:38:07;;;;;;;4.13;3.60;;;17.00;99.90;;;;;;5092740;28;20427;-49
2022/08/10 00:40:34;;;;;;;3.47;3.17;;;16.70;99.90;;;;;;5092488;28;20478;-49
2022/08/10 00:43:03;;;;;;;3.73;3.30;;;16.40;99.90;;;;;;5092899;28;20448;-49
2022/08/10 00:45:30;;;;;;;7.70;3.70;;;16.40;99.90;;;;;;5092735;28;20450;-49
2022/08/10 00:47:57;;;;;;;4.10;3.70;;;16.10;99.90;;;;;;5093263;28;20443;-50
2022/08/10 00:50:24;;;;;;;3.60;3.30;;;16.00;99.90;;;;;;5092564;28;20467;-49
2022/08/10 00:52:51;;;;;;;4.33;3.70;;;15.80;99.90;;;;;;5092664;28;20458;-50
2022/08/10 00:55:19;;;;;;;5.30;3.80;;;15.80;99.90;;;;;;5092668;28;20447;-49
2022/08/10 00:57:47;;;;;;;4.10;3.60;;;16.20;99.90;;;;;;5092744;28;20447;-50
2022/08/10 01:00:16;;;;;;;5.30;3.60;;;16.50;99.90;;;;;;5091965;28;20479;-49
2022/08/10 01:02:43;;;;;;;3.90;3.50;;;16.70;99.90;;;;;;5092089;28;20428;-49
2022/08/10 01:05:13;;;;;;;4.90;3.97;;;16.50;99.90;;;;;;5092510;28;20450;-49
2022/08/10 01:07:56;;;;;;;3.47;3.17;;;16.70;99.90;;;;;;5091613;28;20464;-49
2022/08/10 01:10:34;;;;;;;4.23;3.77;;;16.60;99.90;;;;;;5092156;28;20487;-49
2022/08/10 01:13:06;;;;;;;3.10;2.90;;;16.80;99.90;;;;;;5092356;28;20452;-49
2022/08/10 01:15:43;;;;;;;3.80;3.50;;;16.90;99.90;;;;;;5092447;28;20512;-49
2022/08/10 01:18:15;;;;;;;4.30;3.20;;;16.50;99.90;;;;;;5092332;28;20960;-51
2022/08/10 01:20:55;;;;;;;4.00;3.70;;;16.70;99.90;;;;;;5092139;28;21006;-49
2022/08/10 01:23:53;;;;;;;6.47;3.67;;;16.70;99.90;;;;;;5092129;28;20431;-50
2022/08/10 01:26:57;;;;;;;3.87;3.40;;;16.60;99.90;;;;;;5092278;28;20518;-49
2022/08/10 01:29:41;;;;;;;3.80;3.50;;;16.40;99.90;;;;;;5028902;28;20493;-49
2022/08/10 01:32:12;;;;;;;3.63;3.33;;;16.80;99.90;;;;;;5086638;28;20466;-49
2022/08/10 01:34:52;;;;;;;4.10;3.63;;;16.60;99.90;;;;;;5092019;28;20873;-49
2022/08/10 01:37:24;;;;;;;5.13;3.70;;;16.10;99.90;;;;;;5092004;28;20858;-50
2022/08/10 01:40:02;;;;;;;4.07;3.67;;;15.90;99.90;;;;;;5091501;28;20447;-49
2022/08/10 01:42:32;;;;;;;4.00;3.60;;;15.80;99.90;;;;;;5091650;28;20479;-49
2022/08/10 01:45:05;;;;;;;4.50;4.10;;;15.80;99.90;;;;;;5091689;28;20790;-50
2022/08/10 01:50:26;;;;;;;3.73;3.43;;;15.90;99.90;;;;;;5091192;28;21035;-50
2022/08/10 01:52:58;;;;;;;4.20;3.90;;;15.80;99.90;;;;;;5091431;28;20448;-50
2022/08/10 01:55:27;;;;;;;4.10;3.60;;;16.40;99.90;;;;;;5091572;28;20506;-49
2022/08/10 01:57:56;;;;;;;4.03;3.63;;;16.30;99.90;;;;;;5091452;28;20439;-50
2022/08/10 02:00:26;;;;;;;4.00;3.70;;;16.70;99.90;;;;;;5090880;28;20473;-49
2022/08/10 02:02:54;;;;;;;3.90;3.60;;;16.50;99.90;;;;;;5091030;28;20912;-49
2022/08/10 02:05:23;;;;;;;3.77;3.47;;;16.10;99.90;;;;;;5091455;28;20455;-52
2022/08/10 02:07:51;;;;;;;4.43;3.20;;;16.00;99.90;;;;;;5091390;28;20834;-50
2022/08/10 02:10:21;;;;;;;4.40;3.97;;;15.80;99.90;;;;;;5091018;28;20975;-49
2022/08/10 02:12:49;;;;;;;3.40;3.10;;;15.90;99.90;;;;;;5091067;28;21014;-49
2022/08/10 02:15:19;;;;;;;4.97;4.00;;;15.80;99.90;;;;;;5091200;28;20444;-49
2022/08/10 02:17:51;;;;;;;5.37;4.20;;;15.50;99.90;;;;;;5091117;28;20443;-49
2022/08/10 02:20:21;;;;;;;3.70;3.40;;;15.50;99.90;;;;;;5089910;28;21017;-50
2022/08/10 02:22:52;;;;;;;5.13;4.00;;;15.90;99.90;;;;;;5090879;28;20424;-49
2022/08/10 02:25:22;;;;;;;4.33;3.80;;;15.80;99.90;;;;;;5091231;28;20990;-49
2022/08/10 02:27:51;;;;;;;4.13;3.73;;;16.10;99.90;;;;;;5091011;28;20520;-49
2022/08/10 02:30:19;;;;;;;4.97;3.53;;;16.30;99.90;;;;;;5090670;28;20853;-49
2022/08/10 02:32:49;;;;;;;3.63;3.33;;;16.00;99.90;;;;;;5090755;28;20444;-49
2022/08/10 02:35:17;;;;;;;4.70;4.30;;;15.90;99.90;;;;;;5090747;28;20456;-49
2022/08/10 02:37:47;;;;;;;5.33;4.20;;;15.90;99.90;;;;;;5090783;28;20492;-49
2022/08/10 02:40:15;;;;;;;4.50;3.90;;;15.90;99.90;;;;;;5090237;28;20447;-49
2022/08/10 02:42:50;;;;;;;3.63;3.33;;;15.70;99.90;;;;;;5090704;28;20560;-49
2022/08/10 02:45:25;;;;;;;4.03;3.63;;;15.90;99.90;;;;;;5090521;28;20955;-49
2022/08/10 02:48:00;;;;;;;3.80;3.50;;;15.60;99.90;;;;;;5090688;28;20927;-49
2022/08/10 02:50:29;;;;;;;4.20;3.80;;;15.70;99.90;;;;;;5090649;28;20975;-49
2022/08/10 02:53:01;;;;;;;4.37;4.07;;;15.80;99.90;;;;;;5090298;28;20493;-50
2022/08/10 02:55:34;;;;;;;4.00;3.70;;;16.10;99.90;;;;;;5090337;28;20435;-49
2022/08/10 02:58:07;;;;;;;6.10;3.73;;;15.70;99.90;;;;;;5090457;28;20520;-49
2022/08/10 03:00:40;;;;;;;4.23;3.83;;;15.90;99.90;;;;;;5089923;28;20486;-49
2022/08/10 03:03:10;;;;;;;4.27;3.87;;;15.70;99.90;;;;;;5089972;28;20490;-49
2022/08/10 03:05:38;;;;;;;4.27;3.87;;;15.30;99.90;;;;;;5090100;28;20439;-49
2022/08/10 03:08:08;;;;;;;5.80;4.03;;;15.30;99.90;;;;;;5090244;28;20447;-49
2022/08/10 03:10:41;;;;;;;4.40;4.00;;;15.30;99.90;;;;;;5089794;28;20458;-49
2022/08/10 03:13:10;;;;;;;4.13;3.83;;;15.30;99.90;;;;;;5090267;28;20444;-50
2022/08/10 03:15:40;;;;;;;5.17;3.97;;;15.20;99.90;;;;;;5090027;28;20439;-50
2022/08/10 03:18:11;;;;;;;4.57;4.17;;;15.40;99.90;;;;;;5090045;28;20454;-49
2022/08/10 03:20:42;;;;;;;4.90;3.97;;;15.30;99.90;;;;;;5089638;28;20452;-49
2022/08/10 03:23:13;;;;;;;3.37;3.17;;;15.50;99.90;;;;;;5090153;28;20497;-49
2022/08/10 03:25:41;;;;;;;4.30;4.00;;;15.80;99.90;;;;;;5089786;28;20455;-49
2022/08/10 03:28:09;;;;;;;5.53;3.97;;;16.10;99.90;;;;;;5090136;28;20940;-52
2022/08/10 03:30:37;;;;;;;6.00;3.63;;;16.10;99.90;;;;;;5089676;28;20472;-51
2022/08/10 03:33:06;;;;;;;3.97;3.67;;;15.80;99.90;;;;;;5094006;28;20829;-49
2022/08/10 03:35:35;;;;;;;3.87;3.57;;;16.00;99.90;;;;;;5094072;28;20431;-49
2022/08/10 03:38:02;;;;;;;4.27;3.90;;;15.70;99.90;;;;;;5094093;28;20459;-50
2022/08/10 03:40:32;;;;;;;4.70;4.20;;;15.50;99.90;;;;;;5094063;28;20524;-50
2022/08/10 03:43:02;;;;;;;4.50;4.10;;;15.50;99.90;;;;;;5093731;28;20475;-50
2022/08/10 03:45:32;;;;;;;4.23;3.90;;;15.60;99.90;;;;;;5093929;28;20428;-49
2022/08/10 03:48:00;;;;;;;4.40;3.20;;;15.40;99.90;;;;;;5094014;28;20928;-49
2022/08/10 03:50:28;;;;;;;4.00;3.70;;;15.90;99.90;;;;;;5093681;28;20463;-49
2022/08/10 03:52:57;;;;;;;4.20;3.90;;;15.50;99.90;;;;;;5093981;28;20431;-50
2022/08/10 03:55:25;;;;;;;4.30;3.90;;;15.60;99.90;;;;;;5093683;28;20477;-49
2022/08/10 03:57:52;;;;;;;4.33;3.77;;;15.40;99.90;;;;;;5093749;28;20451;-49
2022/08/10 04:00:19;;;;;;;4.60;3.50;;;15.60;99.90;;;;;;5094504;28;20463;-49
2022/08/10 04:02:48;;;;;;;4.00;3.70;;;15.40;99.90;;;;;;5093098;28;20475;-49
2022/08/10 04:05:15;;;;;;;4.20;3.80;;;15.70;99.90;;;;;;5093584;28;20439;-49
2022/08/10 04:07:43;;;;;;;4.50;4.20;;;15.80;99.90;;;;;;5093447;28;20518;-49
2022/08/10 04:10:13;;;;;;;4.70;3.77;;;15.70;99.90;;;;;;5093309;28;20472;-49
2022/08/10 04:12:40;;;;;;;5.20;4.00;;;15.50;99.90;;;;;;5093257;28;20924;-49
2022/08/10 04:15:08;;;;;;;5.13;3.90;;;15.60;99.90;;;;;;5094049;28;20959;-50
2022/08/10 04:17:35;;;;;;;4.50;4.00;;;15.40;99.90;;;;;;5093795;28;20596;-49
2022/08/10 04:20:02;;;;;;;5.67;4.23;;;15.00;99.90;;;;;;5092950;28;20471;-49
2022/08/10 04:22:30;;;;;;;6.77;4.77;;;15.30;99.90;;;;;;5093149;28;20561;-50
2022/08/10 04:25:01;;;;;;;5.63;4.00;;;15.70;99.90;;;;;;5092862;28;20443;-49
2022/08/10 04:27:29;;;;;;;5.27;4.03;;;15.80;99.90;;;;;;5093106;28;20920;-50
2022/08/10 04:29:58;;;;;;;4.80;4.40;;;15.60;99.90;;;;;;5092820;28;20540;-49
2022/08/10 04:32:30;;;;;;;4.10;3.77;;;15.60;99.90;;;;;;5092921;28;20435;-49
2022/08/10 04:34:58;;;;;;;4.10;3.70;;;15.90;99.90;;;;;;5093005;28;20514;-49
2022/08/10 04:37:27;;;;;;;4.43;4.03;;;14.80;99.90;;;;;;5092911;28;20428;-49
2022/08/10 04:39:54;;;;;;;5.23;4.83;;;14.60;99.90;;;;;;5092884;28;20822;-49
2022/08/10 04:42:21;;;;;;;4.03;3.73;;;15.20;99.90;;;;;;5092383;28;20532;-49
2022/08/10 04:44:51;;;;;;;4.50;3.63;;;15.50;99.90;;;;;;5092179;28;20809;-50
2022/08/10 04:47:18;;;;;;;4.20;3.90;;;15.30;99.90;;;;;;5092963;28;20525;-49
2022/08/10 04:49:45;;;;;;;4.20;3.90;;;14.90;99.90;;;;;;5092557;28;20459;-50
2022/08/10 04:52:12;;;;;;;4.43;4.03;;;15.30;99.90;;;;;;5092635;28;20432;-49
2022/08/10 04:54:39;;;;;;;4.77;4.30;;;15.20;99.90;;;;;;5092971;28;20655;-50
2022/08/10 04:57:06;;;;;;;4.10;3.80;;;15.20;99.90;;;;;;5092643;28;20458;-49
2022/08/10 04:59:33;;;;;;;4.53;4.13;;;15.10;99.90;;;;;;5092157;28;20467;-50
2022/08/10 05:02:02;;;;;;;4.53;4.23;;;15.10;99.90;;;;;;5091751;28;20483;-49
2022/08/10 05:04:29;;;;;;;5.53;3.70;;;15.30;99.90;;;;;;5092409;28;20434;-50
2022/08/10 05:06:56;;;;;;;4.37;3.97;;;15.20;99.90;;;;;;5092466;28;20428;-50
2022/08/10 05:09:23;;;;;;;4.13;3.83;;;15.10;99.90;;;;;;5092231;28;20505;-49
2022/08/10 05:11:50;;;;;;;4.43;4.03;;;15.10;99.90;;;;;;5092157;28;20435;-50
2022/08/10 05:14:17;;;;;;;5.17;4.70;;;15.40;99.90;;;;;;5092244;28;20419;-49
2022/08/10 05:16:44;;;;;;;4.80;4.40;;;15.40;99.90;;;;;;5092061;28;21017;-49
2022/08/10 05:19:12;;;;;;;4.83;4.43;;;15.20;99.90;;;;;;5091802;28;20454;-50
2022/08/10 05:21:39;;;;;;;5.40;4.40;;;15.20;99.90;;;;;;5092225;28;20521;-50
2022/08/10 05:24:07;;;;;;;4.77;4.37;;;15.00;99.90;;;;;;5091852;28;20455;-48
2022/08/10 05:26:34;;;;;;;7.40;4.70;;;14.90;99.90;;;;;;5092014;28;20857;-49
2022/08/10 05:29:01;;;;;;;4.80;4.30;;;14.80;99.90;;;;;;5092004;28;20460;-49
2022/08/10 05:31:28;;;;;;;4.77;4.37;;;14.90;99.90;;;;;;5092132;28;21042;-49
2022/08/10 05:33:55;;;;;;;4.57;4.27;;;15.00;99.90;;;;;;5091883;28;20477;-49
2022/08/10 05:36:24;;;;;;;4.70;4.30;;;15.10;99.90;;;;;;5091835;28;20428;-50
2022/08/10 05:38:52;;;;;;;5.23;4.67;;;15.70;99.90;;;;;;5091462;28;20459;-50
2022/08/10 05:41:20;;;;;;;4.23;3.93;;;15.80;99.90;;;;;;5092220;28;20462;-50
2022/08/10 05:43:47;;;;;;;3.93;3.43;;;15.90;99.90;;;;;;5091789;28;20472;-49
2022/08/10 05:46:14;;;;;;;4.30;3.90;;;15.70;99.90;;;;;;5091613;28;20439;-50
2022/08/10 05:48:42;;;;;;;4.90;4.40;;;15.70;99.90;;;;;;5091118;28;20864;-50
2022/08/10 05:51:10;;;;;;;4.60;4.20;;;15.70;99.90;;;;;;5091973;28;20668;-50
2022/08/10 05:53:38;;;;;;;4.60;4.00;;;15.80;99.90;;;;;;5091755;28;20464;-50
2022/08/10 05:56:08;;;;;;;5.20;4.70;;;16.10;99.90;;;;;;5091295;28;20439;-49
2022/08/10 05:58:36;;;;;;;4.93;4.53;;;15.90;99.90;;;;;;5091218;28;20439;-50
2022/08/10 06:01:07;;;;;;;5.83;4.60;;;15.40;99.90;;;;;;5091269;28;20432;-49
2022/08/10 06:03:49;;;;;;;4.40;4.00;;;15.00;99.90;;;;;;5091180;28;20470;-50
2022/08/10 06:06:19;;;;;;;4.43;4.03;;;14.90;99.90;;;;;;5091538;28;20455;-49
2022/08/10 06:08:49;;;;;;;3.60;3.30;;;15.30;99.90;;;;;;5091116;28;20866;-48
2022/08/10 06:11:18;;;;;;;4.67;4.30;;;15.40;99.90;;;;;;5090909;28;20902;-52
2022/08/10 06:16:32;;;;;;;5.90;4.83;;;15.60;99.90;;;;;;5091185;28;20438;-49
2022/08/10 06:19:00;;;;;;;5.67;4.60;;;15.40;99.90;;;;;;5090690;28;20454;-50
2022/08/10 06:21:28;;;;;;;5.47;4.00;;;15.10;99.90;;;;;;5091027;28;20447;-49
2022/08/10 06:23:59;;;;;;;5.20;4.50;;;14.80;99.90;;;;;;5090925;28;20475;-49
2022/08/10 06:26:26;;;;;;;4.30;4.00;;;15.00;99.90;;;;;;5090968;28;20470;-49
2022/08/10 06:29:07;;;;;;;7.00;4.23;;;15.10;99.90;;;;;;5090847;28;20509;-51
2022/08/10 06:31:38;;;;;;;4.70;4.30;;;15.40;99.90;;;;;;5090861;28;20943;-50
2022/08/10 06:34:06;;;;;;;5.40;4.90;;;15.70;99.90;;;;;;5091468;28;20484;-49
2022/08/10 06:36:34;;;;;;;5.33;4.90;;;15.70;99.90;;;;;;5090974;28;20424;-50
2022/08/10 06:39:04;;;;;;;5.13;4.47;;;16.20;99.90;;;;;;5090337;28;20497;-51
2022/08/10 06:41:35;;;;;;;5.70;5.20;;;15.70;99.90;;;;;;5090583;28;20925;-50
2022/08/10 06:44:08;;;;;;;6.93;4.60;;;15.40;99.90;;;;;;5090436;28;20471;-49
2022/08/10 06:46:39;;;;;;;5.70;4.93;;;15.50;99.90;;;;;;5090823;28;20447;-49
2022/08/10 06:49:09;;;;;;;6.43;5.13;;;15.60;99.90;;;;;;5090483;28;20576;-50
2022/08/10 06:51:39;;;;;;;9.33;5.87;;;16.10;99.90;;;;;;5090620;28;20444;-49
2022/08/10 06:54:11;;;;;;;5.67;5.17;;;15.70;99.90;;;;;;5090562;28;20448;-50
2022/08/10 06:56:41;;;;;;;5.77;5.20;;;15.80;99.90;;;;;;5090513;28;20489;-49
2022/08/10 06:59:11;;;;;;;5.03;4.63;;;16.10;99.90;;;;;;5089844;28;20517;-49
2022/08/10 07:01:40;;;;;;;5.50;5.00;;;16.10;99.90;;;;;;5090188;28;20520;-50
2022/08/10 07:04:12;;;;;;;5.10;4.70;;;15.90;99.90;;;;;;5090381;28;20548;-49
2022/08/10 07:06:44;;;;;;;4.80;4.20;;;16.20;99.90;;;;;;5089796;28;20859;-50
2022/08/10 07:09:14;;;;;;;5.00;4.60;;;16.40;99.90;;;;;;5090518;28;20496;-50
2022/08/10 07:11:43;;;;;;;5.43;4.97;;;16.50;99.90;;;;;;5090115;28;20443;-49
2022/08/10 07:14:12;;;;;;;5.27;4.77;;;16.40;99.90;;;;;;5090241;28;20443;-50
2022/08/10 07:16:41;;;;;;;5.40;4.90;;;16.80;99.90;;;;;;5090161;28;20455;-50
2022/08/10 07:19:09;;;;;;;7.97;5.10;;;16.80;99.90;;;;;;5089930;28;20559;-50
2022/08/10 07:21:37;;;;;;;7.23;5.03;;;16.50;99.90;;;;;;5089983;28;20519;-51
2022/08/10 07:24:08;;;;;;;5.70;5.20;;;17.00;99.90;;;;;;5089664;28;20463;-50
2022/08/10 07:26:37;;;;;;;5.57;5.07;;;16.70;99.90;;;;;;5090277;28;20450;-50
2022/08/10 07:29:06;;;;;;;5.80;5.30;;;16.50;99.90;;;;;;5089643;28;20440;-50
2022/08/10 07:31:34;;;;;;;5.20;4.73;;;16.50;99.90;;;;;;5090061;28;20988;-49
2022/08/10 07:34:05;;;;;;;5.47;5.03;;;16.70;99.90;;;;;;5089834;28;20432;-49
2022/08/10 07:36:33;;;;;;;5.13;4.73;;;17.10;99.90;;;;;;5090116;28;20451;-49
2022/08/10 07:39:01;;;;;;;5.30;4.80;;;16.90;99.90;;;;;;5089642;28;20463;-50
2022/08/10 07:41:30;;;;;;;6.33;5.10;;;16.80;99.90;;;;;;5089832;28;20427;-49
2022/08/10 07:44:03;;;;;;;5.10;4.70;;;16.90;99.90;;;;;;5089633;28;20467;-52
2022/08/10 07:46:31;;;;;;;5.40;4.90;;;17.10;99.90;;;;;;5089703;28;20436;-51
2022/08/10 07:49:15;;;;;;;7.20;5.50;;;17.20;99.90;;;;;;5089940;28;20490;-53
2022/08/10 07:51:42;;;;;;;4.93;4.53;;;17.40;99.90;;;;;;5089906;28;20456;-51
2022/08/10 07:54:14;;;;;;;6.73;5.27;;;17.80;99.90;;;;;;5089826;28;20497;-50
2022/08/10 07:56:46;;;;;;;5.10;4.60;;;17.90;99.90;;;;;;5089990;28;20440;-49
2022/08/10 07:59:17;;;;;;;6.53;5.20;;;17.70;99.90;;;;;;5089312;28;20899;-51
2022/08/10 08:01:49;;;;;;;5.73;5.10;;;18.10;99.90;;;;;;5089713;28;20590;-51
2022/08/10 08:04:19;;;;;;;5.60;5.10;;;18.50;99.90;;;;;;5089574;28;20471;-50
2022/08/10 08:06:48;;;;;;;5.20;4.73;;;18.60;99.90;;;;;;5089614;28;20427;-50
2022/08/10 08:09:15;;;;;;;4.37;3.97;;;18.20;99.90;;;;;;5089700;28;20830;-50
2022/08/10 08:11:44;;;;;;;4.80;4.40;;;18.70;99.90;;;;;;5089508;28;21005;-50
2022/08/10 08:14:13;;;;;;;4.80;4.40;;;18.40;99.90;;;;;;5089788;28;20439;-50
2022/08/10 08:16:45;;;;;;;6.87;4.60;;;19.10;99.90;;;;;;5089649;28;20443;-50
2022/08/10 08:19:13;;;;;;;5.30;4.90;;;19.30;99.90;;;;;;5093136;28;20443;-50
2022/08/10 08:21:41;;;;;;;4.97;4.67;;;18.90;99.90;;;;;;5093444;28;21025;-50
2022/08/10 08:24:11;;;;;;;5.33;4.83;;;19.00;99.90;;;;;;5092971;28;20467;-51
2022/08/10 08:26:39;;;;;;;5.80;4.83;;;19.70;99.90;;;;;;5093174;28;20496;-51
2022/08/10 08:29:09;;;;;;;5.00;4.60;;;20.20;99.90;;;;;;5093076;28;21002;-53
2022/08/10 08:31:36;;;;;;;4.70;4.30;;;19.90;99.90;;;;;;5093472;28;20443;-50
2022/08/10 08:34:06;;;;;;;4.90;4.50;;;19.70;99.90;;;;;;5092969;28;20438;-51
2022/08/10 08:36:35;;;;;;;4.73;4.43;;;20.20;99.90;;;;;;5093034;28;20463;-50
2022/08/10 08:39:02;;;;;;;4.60;4.20;;;20.70;99.90;;;;;;5092757;28;20456;-51
2022/08/10 08:41:56;;;;;;;4.60;4.20;;;20.10;99.90;;;;;;5093291;28;20439;-50
2022/08/10 08:44:34;;;;;;;5.97;4.90;;;19.60;99.90;;;;;;5092742;28;20466;-51
2022/08/10 08:47:23;;;;;;;4.93;4.53;;;19.60;99.90;;;;;;5093119;28;20427;-53
2022/08/10 08:50:06;;;;;;;5.00;4.60;;;19.90;99.90;;;;;;5092627;28;20529;-51
2022/08/10 08:52:45;;;;;;;4.73;4.13;;;20.30;99.90;;;;;;5092697;28;20466;-51
2022/08/10 08:55:25;;;;;;;4.80;4.40;;;20.90;99.90;;;;;;5092777;28;20436;-53
2022/08/10 08:58:04;;;;;;;5.57;4.13;;;21.20;99.90;;;;;;5092677;28;20431;-51
2022/08/10 09:00:56;;;;;;;4.60;4.20;;;21.20;99.90;;;;;;5092170;28;20871;-51
2022/08/10 09:03:47;;;;;;;4.73;4.40;;;21.40;99.90;;;;;;5092098;28;20478;-51
2022/08/10 09:06:36;;;;;;;5.43;4.93;;;20.70;99.90;;;;;;5092578;28;20471;-50
2022/08/10 09:09:20;;;;;;;5.20;4.80;;;20.60;99.90;;;;;;5092196;28;20501;-51
2022/08/10 09:11:58;;;;;;;5.13;4.73;;;20.30;99.90;;;;;;5092255;28;20500;-51
2022/08/10 09:14:35;;;;;;;5.30;4.80;;;20.30;99.90;;;;;;5092401;28;20431;-51
2022/08/10 09:17:09;;;;;;;4.57;4.17;;;20.60;99.90;;;;;;5092490;28;20535;-51
2022/08/10 09:19:46;;;;;;;5.57;5.03;;;21.30;99.90;;;;;;5092355;28;20459;-51
2022/08/10 09:22:23;;;;;;;4.47;4.07;;;21.60;99.90;;;;;;5092243;28;20550;-51
2022/08/10 09:24:57;;;;;;;5.47;5.07;;;22.00;99.90;;;;;;5092139;28;20478;-52
2022/08/10 09:27:30;;;;;;;4.60;4.20;;;21.80;99.90;;;;;;5092203;28;20920;-51
2022/08/10 09:30:02;;;;;;;4.60;4.20;;;21.60;99.90;;;;;;5091399;28;20472;-51
2022/08/10 09:32:37;;;;;;;4.30;4.00;;;21.90;99.90;;;;;;5092111;28;20444;-50
2022/08/10 09:35:14;;;;;;;4.93;4.10;;;21.80;99.90;;;;;;5091991;28;20969;-50
2022/08/10 09:37:51;;;;;;;4.77;4.17;;;21.90;99.90;;;;;;5091847;28;20423;-51
2022/08/10 09:40:25;;;;;;;4.73;4.37;;;22.10;99.90;;;;;;5091792;28;20492;-50
2022/08/10 09:43:02;;;;;;;3.70;3.40;;;21.70;99.90;;;;;;5091663;28;20433;-50
2022/08/10 09:45:38;;;;;;;4.50;4.00;;;22.10;99.90;;;;;;5091970;28;20443;-51
2022/08/10 09:48:13;;;;;;;5.90;5.23;;;21.80;99.90;;;;;;5092219;28;20447;-51
2022/08/10 09:50:54;;;;;;;7.33;4.30;;;22.20;99.90;;;;;;5091754;28;20497;-51
2022/08/10 09:53:34;;;;;;;5.07;4.67;;;22.60;99.90;;;;;;5091644;28;20440;-49
2022/08/10 09:56:13;;;;;;;4.23;3.93;;;22.60;99.90;;;;;;5091427;28;20443;-48
2022/08/10 09:58:46;;;;;;;4.20;3.90;;;21.90;99.90;;;;;;5091233;28;21049;-47
2022/08/10 10:01:23;;;;;;;4.10;3.70;;;22.00;99.90;;;;;;5092690;28;20992;-48
2022/08/10 10:04:04;;;;;;;3.90;3.60;;;22.30;99.90;;;;;;5091751;28;20739;-48
2022/08/10 10:06:39;;;;;;;4.07;3.67;;;22.70;99.90;;;;;;5091461;28;20431;-48
2022/08/10 10:09:12;;;;;;;4.90;4.50;;;23.00;99.90;;;;;;5091182;28;20524;-48
2022/08/10 10:12:05;;;;;;;3.37;3.10;;;23.10;99.90;;;;;;5091441;28;20443;-49
2022/08/10 10:17:34;;;;;;;5.40;3.90;;;23.30;99.90;;;;;;5076967;28;20421;-48
2022/08/10 10:20:09;;;;;;;4.00;3.40;;;23.30;99.90;;;;;;5070373;28;20952;-49
2022/08/10 10:22:50;;;;;;;3.90;3.60;;;23.00;99.90;;;;;;5070783;28;20451;-48
2022/08/10 10:25:26;;;;;;;3.83;3.53;;;23.40;99.90;;;;;;5070251;28;20441;-47
2022/08/10 10:28:05;;;;;;;4.20;3.80;;;23.40;99.90;;;;;;5070573;28;20504;-52
2022/08/10 10:30:51;;;;;;;4.30;3.90;;;23.60;99.90;;;;;;5070572;28;20492;-49
2022/08/10 10:33:30;;;;;;;3.50;3.20;;;23.70;99.90;;;;;;5070574;28;20510;-48
2022/08/10 10:35:58;;;;;;;3.60;3.30;;;23.50;99.90;;;;;;5076387;28;20421;-49
2022/08/10 10:38:32;;;;;;;4.23;3.90;;;23.60;99.90;;;;;;5079783;28;20435;-48
2022/08/10 10:41:08;;;;;;;4.07;3.67;;;23.60;99.90;;;;;;5076043;28;20445;-47
2022/08/10 10:43:47;;;;;;;5.83;3.80;;;23.40;99.90;;;;;;5078965;28;20468;-48
2022/08/10 10:46:33;;;;;;;6.13;3.87;;;23.20;99.90;;;;;;5079211;28;20440;-47
2022/08/10 10:49:07;;;;;;;4.47;4.03;;;23.60;99.90;;;;;;5077367;28;20444;-48
2022/08/10 10:51:41;;;;;;;5.43;4.20;;;23.90;99.90;;;;;;5090551;28;20530;-48
2022/08/10 10:54:11;;;;;;;5.03;3.63;;;24.00;99.90;;;;;;5089431;28;20492;-49
2022/08/10 10:56:54;;;;;;;5.30;4.27;;;24.00;99.90;;;;;;5090321;28;20475;-49
2022/08/10 10:59:30;;;;;;;3.73;3.53;;;24.00;99.90;;;;;;5089986;28;20470;-49
2022/08/10 11:02:06;;;;;;;6.10;4.20;;;23.90;99.90;;;;;;5089555;28;20553;-50
2022/08/10 11:04:40;;;;;;;4.90;3.43;;;24.10;99.90;;;;;;5090459;28;20508;-49
2022/08/10 11:07:17;;;;;;;4.20;3.23;;;24.10;99.90;;;;;;5090319;28;20431;-49
2022/08/10 11:09:48;;;;;;;3.43;3.23;;;24.10;99.90;;;;;;5090350;28;20516;-51
2022/08/10 11:12:25;;;;;;;4.03;3.30;;;24.20;99.90;;;;;;5090174;28;20467;-50
2022/08/10 11:14:58;;;;;;;4.63;4.23;;;24.40;99.90;;;;;;5090313;28;20447;-49
2022/08/10 11:17:32;;;;;;;4.30;3.80;;;24.40;99.90;;;;;;5090671;28;20508;-49
2022/08/10 11:20:04;;;;;;;4.23;3.83;;;;;;;;;;5090017;28;20516;-48
2022/08/10 11:22:36;;;;;;;4.60;4.20;;;24.40;99.90;;;;;;5090020;28;20428;-49
2022/08/10 11:25:10;;;;;;;3.90;3.60;;;24.30;99.90;;;;;;5089722;28;20837;-50
2022/08/10 11:27:49;;;;;;;4.60;4.20;;;24.60;99.90;;;;;;5090060;28;20439;-49
2022/08/10 11:30:20;;;;;;;4.33;4.03;;;24.70;99.90;;;;;;5089887;28;20454;-49
2022/08/10 11:33:07;;;;;;;3.90;3.60;;;24.70;99.90;;;;;;5090187;28;20448;-48
2022/08/10 11:35:43;;;;;;;3.63;3.33;;;24.70;99.90;;;;;;5090198;28;20925;-49
2022/08/10 11:38:19;;;;;;;4.27;3.97;;;24.30;99.90;;;;;;5089946;28;20443;-49
2022/08/10 11:40:57;;;;;;;4.03;3.67;;;23.90;99.90;;;;;;5089836;28;20458;-48
2022/08/10 11:43:28;;;;;;;4.40;3.53;;;24.40;99.90;;;;;;5089702;28;20764;-50
2022/08/10 11:46:03;;;;;;;3.97;3.67;;;24.50;99.90;;;;;;5090016;28;20435;-49
2022/08/10 11:48:37;;;;;;;3.90;3.60;;;24.70;99.90;;;;;;5089968;28;20455;-49
2022/08/10 11:51:11;;;;;;;4.20;3.80;;;25.10;99.90;;;;;;5089678;28;20451;-49
2022/08/10 11:53:48;;;;;;;3.67;3.37;;;25.20;99.90;;;;;;5093183;28;20592;-49
2022/08/10 11:56:24;;;;;;;4.73;3.90;;;25.30;99.90;;;;;;5093966;28;20479;-49
2022/08/10 12:01:39;;;;;;;4.03;3.60;;;25.30;99.90;;;;;;5093529;28;20488;-49
2022/08/10 12:04:07;;;;;;;4.40;3.80;;;24.70;99.90;;;;;;5093832;28;20473;-49
2022/08/10 12:06:36;;;;;;;4.23;3.93;;;24.90;99.90;;;;;;5093747;28;20447;-50
2022/08/10 12:09:06;;;;;;;4.23;3.87;;;25.20;99.90;;;;;;5093610;28;20459;-49
2022/08/10 12:11:34;;;;;;;4.93;3.53;;;24.60;99.90;;;;;;5093751;28;20436;-49
2022/08/10 12:14:06;;;;;;;4.53;4.13;;;24.50;99.90;;;;;;5093417;28;20447;-49
2022/08/10 12:16:39;;;;;;;5.13;3.63;;;25.40;99.90;;;;;;5093348;28;20428;-49
2022/08/10 12:19:15;;;;;;;3.50;3.20;;;25.50;99.90;;;;;;5093110;28;20623;-49
2022/08/10 12:21:46;;;;;;;4.10;3.80;;;25.00;99.90;;;;;;5093332;28;20443;-49
2022/08/10 12:24:22;;;;;;;5.60;3.93;;;24.90;99.90;;;;;;5093110;28;20490;-51
2022/08/10 12:26:56;;;;;;;3.63;3.33;;;24.90;99.90;;;;;;5093634;28;20518;-51
2022/08/10 12:29:32;;;;;;;4.13;3.73;;;24.80;99.90;;;;;;5093283;28;20466;-49
2022/08/10 12:32:05;;;;;;;9.10;4.00;;;24.90;99.90;;;;;;5093324;28;20446;-48
2022/08/10 12:34:39;;;;;;;4.10;3.70;;;25.00;99.90;;;;;;5093279;28;20431;-51
2022/08/10 12:37:14;;;;;;;4.00;3.60;;;24.90;99.90;;;;;;5093207;28;20436;-50
2022/08/10 12:39:53;;;;;;;6.50;4.23;;;25.10;99.90;;;;;;5093280;28;20844;-48
2022/08/10 12:42:30;;;;;;;3.60;3.30;;;25.20;99.90;;;;;;5093242;28;20451;-51
2022/08/10 12:45:03;;;;;;;4.97;3.40;;;25.20;99.90;;;;;;5092952;28;20487;-49
2022/08/10 12:47:40;;;;;;;3.50;3.20;;;25.50;99.90;;;;;;5092991;28;20512;-49
2022/08/10 12:50:18;;;;;;;3.27;3.03;;;25.20;99.90;;;;;;5092571;28;20454;-49
2022/08/10 12:52:52;;;;;;;6.97;3.50;;;25.30;99.90;;;;;;5092947;28;20469;-49
2022/08/10 12:55:21;;;;;;;3.40;3.20;;;25.20;99.60;;;;;;5092971;28;20466;-49
2022/08/10 12:57:54;;;;;;;3.13;2.93;;;25.20;99.90;;;;;;5092591;28;20462;-49
2022/08/10 13:00:28;;;;;;;3.53;3.20;;;25.20;99.10;;;;;;5092342;28;20467;-48
2022/08/10 13:02:58;;;;;;;3.40;2.90;;;25.20;99.60;;;;;;5092485;28;20451;-48
2022/08/10 13:05:27;;;;;;;3.50;3.20;;;25.30;99.50;;;;;;5091792;28;20472;-51
2022/08/10 13:10:44;;;;;;;4.20;3.27;;;25.50;98.70;;;;;;5091938;28;20452;-49
2022/08/10 13:13:14;;;;;;;4.17;3.60;;;25.30;98.30;;;;;;5092513;28;20481;-49
2022/08/10 13:15:46;;;;;;;3.60;3.07;;;25.40;98.00;;;;;;5092324;28;20435;-49
2022/08/10 13:18:15;;;;;;;4.53;2.97;;;25.30;97.80;;;;;;5092471;28;20867;-48
2022/08/10 13:20:42;;;;;;;9.17;4.70;;;25.40;99.90;;;;;;5092144;28;20467;-49
2022/08/10 13:23:13;;;;;;;4.47;3.43;;;25.40;97.70;;;;;;5092190;28;20426;-49
2022/08/10 13:25:45;;;;;;;3.30;2.60;;;25.40;97.60;;;;;;5091498;28;20540;-49